Time;durP1;ratioP1;P1;durP2;ratioP2;P2;SDS_P1;SDS_P2;PMS_P1;PMS_P2;Temp;Humidity;BMP_temperature;BMP_pressure;BME280_temperature;BME280_humidity;BME280_pressure;Samples;Min_cycle;Max_cycle;Signal;HPM_P1;HPM_P2
2022/01/04 00:00:14;;;;;;;2.95;1.00;;;;;;;10.74;85.67;98533.28;342185;28;1305;-69
2022/01/04 00:00:26;;;;;;;1.95;0.98;;;;;;;10.76;85.87;98532.28;341231;28;2246;-70
2022/01/04 00:00:38;;;;;;;1.75;0.90;;;;;;;10.76;85.77;98526.25;342179;28;2374;-70
2022/01/04 00:00:50;;;;;;;1.50;0.90;;;;;;;10.79;85.83;98526.94;342381;28;1077;-70
2022/01/04 00:01:03;;;;;;;1.63;0.85;;;;;;;10.82;85.74;98531.13;342088;28;2004;-70
2022/01/04 00:01:15;;;;;;;1.77;0.90;;;;;;;10.86;86.08;98524.00;342397;28;1846;-70
2022/01/04 00:01:28;;;;;;;1.67;0.90;;;;;;;10.87;85.76;98533.50;342150;28;1012;-70
2022/01/04 00:01:40;;;;;;;1.98;0.90;;;;;;;10.86;85.60;98526.59;341907;28;1770;-70
2022/01/04 00:01:52;;;;;;;1.83;0.90;;;;;;;10.82;86.06;98525.91;340603;28;1836;-70
2022/01/04 00:02:04;;;;;;;1.40;0.90;;;;;;;10.85;85.79;98525.78;341933;28;1630;-70
2022/01/04 00:02:17;;;;;;;1.42;0.80;;;;;;;10.85;85.63;98530.16;341778;28;1171;-70
2022/01/04 00:02:29;;;;;;;1.63;0.85;;;;;;;10.76;85.87;98524.47;341982;28;1413;-70
2022/01/04 00:02:42;;;;;;;1.48;0.80;;;;;;;10.83;86.37;98526.78;342280;28;1294;-70
2022/01/04 00:02:55;;;;;;;0.75;0.65;;;;;;;10.87;86.16;98529.13;341568;28;2069;-70
2022/01/04 00:03:07;;;;;;;0.85;0.70;;;;;;;10.84;86.20;98524.06;341197;29;1086;-70
2022/01/04 00:03:19;;;;;;;1.00;0.70;;;;;;;10.84;86.10;98518.03;341558;28;1734;-70
2022/01/04 00:03:31;;;;;;;1.00;0.73;;;;;;;10.81;86.14;98524.25;342404;28;1331;-70
2022/01/04 00:03:43;;;;;;;1.30;0.80;;;;;;;10.72;86.38;98525.53;341082;29;1235;-70
2022/01/04 00:03:55;;;;;;;1.67;0.90;;;;;;;10.73;86.82;98526.41;341067;29;1906;-70
2022/01/04 00:04:07;;;;;;;1.70;0.80;;;;;;;10.67;86.66;98527.56;340752;28;1948;-70
2022/01/04 00:04:19;;;;;;;0.82;0.75;;;;;;;10.65;86.96;98524.19;341858;28;1584;-70
2022/01/04 00:04:31;;;;;;;0.95;0.88;;;;;;;10.66;86.86;98523.25;342003;28;1051;-70
2022/01/04 00:04:43;;;;;;;1.13;1.00;;;;;;;10.71;86.95;98529.09;342347;28;1056;-70
2022/01/04 00:04:55;;;;;;;2.28;1.00;;;;;;;10.70;86.90;98527.38;342266;28;1086;-70
2022/01/04 00:05:09;;;;;;;2.60;0.93;;;;;;;10.75;86.67;98520.22;339530;29;1056;-69
2022/01/04 00:05:21;;;;;;;2.13;0.88;;;;;;;10.75;87.05;98519.38;341044;28;2008;-69
2022/01/04 00:05:33;;;;;;;1.60;0.85;;;;;;;10.82;86.55;98523.31;339270;29;1587;-69
2022/01/04 00:05:45;;;;;;;1.27;0.90;;;;;;;10.86;86.63;98516.22;339922;29;1345;-69
2022/01/04 00:05:57;;;;;;;1.60;0.95;;;;;;;10.86;86.24;98519.63;341862;28;1854;-69
2022/01/04 00:06:09;;;;;;;1.52;0.93;;;;;;;10.85;86.60;98519.75;340411;28;1735;-69
2022/01/04 00:06:21;;;;;;;1.48;0.85;;;;;;;10.89;86.50;98522.09;341571;28;1881;-69
2022/01/04 00:06:33;;;;;;;1.40;0.70;;;;;;;10.86;86.39;98517.03;342247;28;1312;-69
2022/01/04 00:06:49;;;;;;;1.05;0.80;;;;;;;10.88;86.45;98519.56;342085;28;1024;-69
2022/01/04 00:07:01;;;;;;;1.48;0.90;;;;;;;10.87;86.36;98523.09;342422;28;1400;-69
2022/01/04 00:07:13;;;;;;;1.63;0.90;;;;;;;10.81;86.28;98519.06;342589;28;1548;-69
2022/01/04 00:07:26;;;;;;;2.05;0.80;;;;;;;10.76;86.60;98516.66;342959;28;1760;-69
2022/01/04 00:07:38;;;;;;;1.42;0.75;;;;;;;10.76;86.99;98521.88;341295;28;2132;-69
2022/01/04 00:07:50;;;;;;;1.50;0.80;;;;;;;10.78;87.04;98517.47;340277;28;1970;-69
2022/01/04 00:08:07;;;;;;;1.45;0.80;;;;;;;10.85;86.72;98515.38;341987;28;1614;-69
2022/01/04 00:08:20;;;;;;;1.80;0.80;;;;;;;10.85;86.55;98515.38;342165;28;1252;-69
2022/01/04 00:08:32;;;;;;;1.58;0.80;;;;;;;10.79;86.57;98516.53;343212;28;2396;-69
2022/01/04 00:08:44;;;;;;;1.13;0.70;;;;;;;10.75;86.41;98509.81;343581;28;1316;-69
2022/01/04 00:09:00;;;;;;;2.20;0.70;;;;;;;10.71;86.83;98508.28;343478;28;1354;-69
2022/01/04 00:09:13;;;;;;;2.03;0.73;;;;;;;10.74;87.27;98513.31;341501;28;1823;-69
2022/01/04 00:09:25;;;;;;;0.90;0.85;;;;;;;10.76;86.82;98510.63;341420;28;1683;-70
2022/01/04 00:09:41;;;;;;;1.60;0.90;;;;;;;10.72;86.88;98503.91;340875;28;1889;-70
2022/01/04 00:09:53;;;;;;;1.65;0.80;;;;;;;10.66;87.00;98505.06;340702;28;2367;-70
2022/01/04 00:10:08;;;;;;;1.70;0.73;;;;;;;10.73;87.13;98506.44;343057;28;1978;-69
2022/01/04 00:10:23;;;;;;;1.60;0.70;;;;;;;10.79;87.33;98500.94;340882;28;2122;-69
2022/01/04 00:10:35;;;;;;;1.30;0.85;;;;;;;10.82;86.67;98501.69;342928;28;1512;-69
2022/01/04 00:10:47;;;;;;;1.42;0.80;;;;;;;10.81;86.99;98498.25;342579;28;1371;-69
2022/01/04 00:11:09;;;;;;;1.67;0.85;;;;;;;10.87;86.92;98497.09;342913;28;1342;-69
2022/01/04 00:11:32;;;;;;;1.63;0.80;;;;;;;10.94;86.25;98493.25;341460;28;1892;-69
2022/01/04 00:13:25;;;;;;;1.48;0.70;;;;;;;10.92;86.50;98490.72;342091;28;1646;-69
2022/01/04 00:13:37;;;;;;;1.70;0.90;;;;;;;10.99;86.27;98491.25;341044;29;1029;-69
2022/01/04 00:13:49;;;;;;;1.83;0.93;;;;;;;10.96;86.24;98496.59;342200;28;1560;-69
2022/01/04 00:14:01;;;;;;;1.92;0.90;;;;;;;10.97;86.19;98495.69;341811;28;1852;-69
2022/01/04 00:14:13;;;;;;;2.28;1.00;;;;;;;10.98;86.21;98493.00;342376;28;1327;-69
2022/01/04 00:14:25;;;;;;;2.80;1.00;;;;;;;10.92;86.33;98490.72;342110;28;1313;-69
2022/01/04 00:14:37;;;;;;;2.10;0.82;;;;;;;10.90;86.45;98496.94;342421;28;1248;-69
2022/01/04 00:14:49;;;;;;;1.05;0.60;;;;;;;10.84;86.51;98492.06;342575;28;1520;-69
2022/01/04 00:15:03;;;;;;;1.25;0.73;;;;;;;10.81;86.84;98493.06;342303;28;1284;-69
2022/01/04 00:15:15;;;;;;;1.73;1.02;;;;;;;10.81;86.65;98497.44;341549;28;1854;-70
2022/01/04 00:15:27;;;;;;;1.60;1.00;;;;;;;10.77;87.03;98492.38;341151;29;1100;-70
2022/01/04 00:15:42;;;;;;;1.35;0.77;;;;;;;10.76;87.30;98490.69;340906;29;1203;-70
2022/01/04 00:15:56;;;;;;;1.10;0.80;;;;;;;10.73;87.27;98490.84;340979;29;1407;-70
2022/01/04 00:16:10;;;;;;;1.30;0.90;;;;;;;10.74;87.27;98492.53;340978;28;2163;-70
2022/01/04 00:16:22;;;;;;;1.17;0.85;;;;;;;10.75;87.51;98488.19;341123;28;2179;-70
2022/01/04 00:16:34;;;;;;;0.95;0.80;;;;;;;10.74;87.32;98492.53;341670;28;2077;-69
2022/01/04 00:16:47;;;;;;;1.00;0.80;;;;;;;10.72;87.50;98494.34;342584;28;2044;-69
2022/01/04 00:16:59;;;;;;;0.70;0.70;;;;;;;10.79;86.95;98484.50;342527;28;1311;-69
2022/01/04 00:17:12;;;;;;;0.90;0.77;;;;;;;10.83;87.17;98495.59;342185;28;1549;-69
2022/01/04 00:17:25;;;;;;;0.85;0.80;;;;;;;10.76;86.80;98488.09;341943;28;1668;-69
2022/01/04 00:17:37;;;;;;;1.65;0.70;;;;;;;10.77;87.31;98494.13;340904;29;1087;-69
2022/01/04 00:17:49;;;;;;;1.63;0.68;;;;;;;10.84;86.94;98486.84;341069;29;1048;-69
2022/01/04 00:18:01;;;;;;;1.45;0.70;;;;;;;10.81;87.19;98487.03;340163;29;1576;-69
2022/01/04 00:18:13;;;;;;;0.90;0.77;;;;;;;10.85;86.99;98488.56;340894;29;1181;-69
2022/01/04 00:18:26;;;;;;;0.82;0.70;;;;;;;10.82;87.35;98489.53;341018;29;1307;-69
2022/01/04 00:18:39;;;;;;;0.80;0.80;;;;;;;10.84;87.19;98492.06;340742;29;1617;-69
2022/01/04 00:18:51;;;;;;;1.00;0.90;;;;;;;10.87;86.74;98491.91;338617;29;1854;-69
2022/01/04 00:19:03;;;;;;;1.42;0.90;;;;;;;10.84;86.67;98486.84;340462;28;1177;-69
2022/01/04 00:19:17;;;;;;;1.67;0.80;;;;;;;10.89;86.82;98484.88;340488;29;1787;-69
2022/01/04 00:19:29;;;;;;;1.40;0.70;;;;;;;10.88;86.92;98483.16;337213;29;1763;-69
2022/01/04 00:19:41;;;;;;;1.00;0.70;;;;;;;10.86;86.80;98485.84;338630;29;1540;-69
2022/01/04 00:19:53;;;;;;;0.90;0.70;;;;;;;10.91;86.46;98489.06;340915;29;1056;-69
2022/01/04 00:20:07;;;;;;;1.67;0.73;;;;;;;10.93;86.87;98491.59;341255;28;1685;-69
2022/01/04 00:20:19;;;;;;;2.10;0.80;;;;;;;10.96;86.84;98486.22;342250;28;1079;-69
2022/01/04 00:20:31;;;;;;;1.52;0.85;;;;;;;10.96;86.46;98484.44;342033;28;1600;-69
2022/01/04 00:20:43;;;;;;;1.48;0.80;;;;;;;10.96;86.06;98491.41;339966;28;1815;-69
2022/01/04 00:20:55;;;;;;;1.40;0.82;;;;;;;10.91;86.22;98483.84;339807;28;2304;-69
2022/01/04 00:21:07;;;;;;;1.52;0.85;;;;;;;10.86;86.82;98485.84;340952;29;1902;-69
2022/01/04 00:21:19;;;;;;;1.52;0.80;;;;;;;10.88;86.95;98478.81;340867;29;1200;-69
2022/01/04 00:21:31;;;;;;;1.75;0.80;;;;;;;10.86;86.65;98479.81;340893;28;2004;-69
2022/01/04 00:21:43;;;;;;;1.77;0.88;;;;;;;10.86;86.49;98480.66;342388;28;2073;-69
2022/01/04 00:21:57;;;;;;;1.50;0.85;;;;;;;10.87;86.69;98484.09;343382;28;1544;-69
2022/01/04 00:22:09;;;;;;;1.40;0.80;;;;;;;10.86;86.74;98475.44;340835;28;1943;-69
2022/01/04 00:22:21;;;;;;;1.40;0.90;;;;;;;10.89;86.71;98480.50;342163;28;1970;-70
2022/01/04 00:22:33;;;;;;;1.27;0.80;;;;;;;10.86;86.56;98474.63;341864;28;1819;-70
2022/01/04 00:22:45;;;;;;;0.90;0.75;;;;;;;10.87;86.70;98477.16;340954;29;1169;-70
2022/01/04 00:22:57;;;;;;;0.60;0.60;;;;;;;10.92;86.48;98482.09;341491;28;1991;-70
2022/01/04 00:23:09;;;;;;;0.68;0.60;;;;;;;10.90;86.40;98482.16;342264;28;2160;-70
2022/01/04 00:23:21;;;;;;;1.45;0.70;;;;;;;10.88;86.79;98481.41;342475;28;1025;-70
2022/01/04 00:23:34;;;;;;;1.50;0.70;;;;;;;10.82;87.08;98478.28;342565;28;1622;-70
2022/01/04 00:23:45;;;;;;;0.60;0.60;;;;;;;10.86;87.00;98472.84;341759;28;1852;-70
2022/01/04 00:23:57;;;;;;;0.80;0.70;;;;;;;10.88;87.07;98480.56;342252;28;1732;-70
2022/01/04 00:24:09;;;;;;;1.10;0.90;;;;;;;10.85;86.85;98483.34;342333;28;1485;-70
2022/01/04 00:24:21;;;;;;;1.33;0.88;;;;;;;10.85;86.63;98483.34;341918;28;1699;-70
2022/01/04 00:24:35;;;;;;;1.42;0.80;;;;;;;10.85;87.27;98488.56;341513;28;2273;-70
2022/01/04 00:24:47;;;;;;;1.30;0.70;;;;;;;10.83;86.67;98474.78;341942;28;1921;-70
2022/01/04 00:24:59;;;;;;;1.80;0.80;;;;;;;10.85;86.66;98483.34;340538;28;1720;-70
2022/01/04 00:25:11;;;;;;;1.80;0.82;;;;;;;10.84;86.65;98484.25;341435;28;2145;-70
2022/01/04 00:25:23;;;;;;;1.55;1.00;;;;;;;10.89;86.68;98479.66;343280;28;1595;-70
2022/01/04 00:25:35;;;;;;;2.10;1.15;;;;;;;10.85;86.79;98480.75;343055;28;1532;-70
2022/01/04 00:25:48;;;;;;;2.17;0.98;;;;;;;10.87;86.76;98478.91;341918;28;2220;-69
2022/01/04 00:26:00;;;;;;;1.75;0.82;;;;;;;10.90;86.89;98478.72;342205;28;1294;-69
2022/01/04 00:26:12;;;;;;;1.70;0.80;;;;;;;10.90;86.80;98476.97;342163;28;1564;-69
2022/01/04 00:26:24;;;;;;;1.40;0.70;;;;;;;10.93;86.67;98470.78;342275;28;1071;-69
2022/01/04 00:26:36;;;;;;;1.13;0.65;;;;;;;10.88;86.71;98468.41;340149;28;2169;-69
2022/01/04 00:26:48;;;;;;;1.38;0.70;;;;;;;10.88;86.32;98483.16;341692;28;2108;-69
2022/01/04 00:27:00;;;;;;;1.17;0.68;;;;;;;10.86;86.84;98475.44;340490;28;1194;-69
2022/01/04 00:27:12;;;;;;;1.10;0.77;;;;;;;10.88;87.06;98473.59;339967;28;1524;-69
2022/01/04 00:27:24;;;;;;;1.08;0.80;;;;;;;10.82;87.01;98473.09;340126;28;2041;-69
2022/01/04 00:27:36;;;;;;;1.55;0.80;;;;;;;10.90;86.83;98476.13;340601;28;1267;-69
2022/01/04 00:27:48;;;;;;;1.35;0.70;;;;;;;10.88;86.45;98484.00;340730;28;1298;-69
2022/01/04 00:28:01;;;;;;;1.58;0.82;;;;;;;10.84;86.54;98476.47;340943;29;1339;-69
2022/01/04 00:28:13;;;;;;;1.67;0.88;;;;;;;10.81;86.93;98476.63;341008;29;1097;-69
2022/01/04 00:28:27;;;;;;;1.60;0.90;;;;;;;10.84;86.92;98473.84;340758;28;1360;-69
2022/01/04 00:28:39;;;;;;;1.45;0.90;;;;;;;10.79;86.77;98469.75;339998;29;1842;-69
2022/01/04 00:28:51;;;;;;;1.35;0.90;;;;;;;10.76;87.16;98480.28;341207;29;954;-69
2022/01/04 00:29:03;;;;;;;1.48;0.80;;;;;;;10.75;87.50;98482.97;341789;28;1274;-69
2022/01/04 00:29:15;;;;;;;2.45;0.90;;;;;;;10.73;87.12;98474.44;342268;28;1030;-69
2022/01/04 00:29:27;;;;;;;2.22;0.80;;;;;;;10.75;87.43;98472.59;340631;28;1769;-69
2022/01/04 00:29:39;;;;;;;1.90;0.73;;;;;;;10.76;87.50;98472.47;340381;28;1841;-69
2022/01/04 00:29:51;;;;;;;3.08;0.77;;;;;;;10.79;87.67;98474.94;342312;28;1137;-69
2022/01/04 00:30:04;;;;;;;2.97;0.90;;;;;;;10.84;87.12;98474.69;342390;28;1278;-69
2022/01/04 00:30:16;;;;;;;1.55;0.90;;;;;;;10.78;87.12;98470.69;342083;28;1855;-69
2022/01/04 00:30:29;;;;;;;1.65;0.85;;;;;;;10.77;87.13;98468.16;342455;28;1174;-69
2022/01/04 00:30:41;;;;;;;1.20;0.73;;;;;;;10.74;87.40;98471.72;340813;29;1582;-69
2022/01/04 00:30:54;;;;;;;1.25;0.77;;;;;;;10.73;87.07;98472.66;339235;29;1624;-69
2022/01/04 00:31:06;;;;;;;1.50;0.70;;;;;;;10.83;87.18;98465.22;339511;29;1093;-69
2022/01/04 00:31:19;;;;;;;0.93;0.65;;;;;;;10.73;87.06;98462.25;339824;29;1171;-69
2022/01/04 00:31:31;;;;;;;0.95;0.80;;;;;;;10.76;87.34;98469.06;339252;28;1886;-69
2022/01/04 00:31:43;;;;;;;0.80;0.80;;;;;;;10.80;87.13;98462.78;340711;29;1724;-69
2022/01/04 00:31:55;;;;;;;1.23;0.95;;;;;;;10.81;86.88;98466.25;341142;29;946;-69
2022/01/04 00:32:07;;;;;;;1.40;1.08;;;;;;;10.86;87.26;98474.63;339833;29;1167;-69
2022/01/04 00:32:19;;;;;;;1.52;1.10;;;;;;;10.89;86.73;98469.28;339769;29;1298;-69
2022/01/04 00:32:31;;;;;;;1.45;1.10;;;;;;;10.94;86.62;98462.06;339727;29;1265;-69
2022/01/04 00:32:44;;;;;;;1.38;0.90;;;;;;;10.96;86.43;98462.81;340308;29;1114;-69
2022/01/04 00:32:56;;;;;;;0.90;0.80;;;;;;;10.95;86.60;98468.94;340576;28;2178;-69
2022/01/04 00:33:10;;;;;;;1.35;0.90;;;;;;;10.97;86.65;98461.91;341865;28;1763;-69
2022/01/04 00:33:22;;;;;;;1.30;0.90;;;;;;;10.93;86.64;98462.97;341342;28;1342;-69
2022/01/04 00:33:34;;;;;;;0.90;0.80;;;;;;;10.96;86.53;98460.22;341503;28;2094;-69
2022/01/04 00:33:46;;;;;;;1.33;0.73;;;;;;;10.99;86.63;98465.25;340412;28;1709;-69
2022/01/04 00:33:58;;;;;;;1.40;0.80;;;;;;;10.93;86.26;98455.19;341964;28;1709;-69
2022/01/04 00:34:10;;;;;;;1.95;0.90;;;;;;;10.98;86.70;98461.78;341898;28;2412;-69
2022/01/04 00:34:22;;;;;;;2.20;0.90;;;;;;;10.97;86.17;98452.34;341368;28;1770;-69
2022/01/04 00:34:34;;;;;;;2.20;0.80;;;;;;;10.97;86.33;98457.53;341988;28;1508;-69
2022/01/04 00:34:46;;;;;;;0.75;0.75;;;;;;;10.97;86.58;98451.50;342208;28;1100;-70
2022/01/04 00:34:58;;;;;;;0.90;0.73;;;;;;;10.95;86.35;98458.53;341237;28;1743;-70
2022/01/04 00:35:11;;;;;;;1.08;0.70;;;;;;;10.97;86.38;98456.69;341950;28;1581;-70
2022/01/04 00:35:23;;;;;;;1.35;0.70;;;;;;;10.98;86.47;98458.38;340993;28;1953;-70
2022/01/04 00:35:35;;;;;;;1.33;0.88;;;;;;;11.00;86.49;98461.72;340998;29;1092;-70
2022/01/04 00:35:47;;;;;;;2.22;0.90;;;;;;;10.99;85.99;98460.06;340885;29;1081;-70
2022/01/04 00:35:59;;;;;;;2.20;0.90;;;;;;;11.01;86.33;98458.22;341297;28;1246;-70
2022/01/04 00:36:12;;;;;;;2.05;0.82;;;;;;;10.99;85.99;98447.06;342237;28;1098;-70
2022/01/04 00:36:25;;;;;;;0.93;0.80;;;;;;;10.99;86.37;98455.69;342357;28;1082;-70
2022/01/04 00:36:37;;;;;;;1.05;0.70;;;;;;;10.98;86.41;98454.00;341443;28;2009;-70
2022/01/04 00:36:49;;;;;;;1.15;0.80;;;;;;;10.99;85.98;98450.50;342385;28;1083;-70
2022/01/04 00:37:01;;;;;;;1.58;0.80;;;;;;;11.03;86.21;98451.16;341636;28;1824;-70
2022/01/04 00:37:13;;;;;;;1.50;0.70;;;;;;;11.04;85.97;98446.81;342419;28;1023;-70
2022/01/04 00:37:25;;;;;;;1.70;0.70;;;;;;;10.95;85.98;98446.38;341819;28;1923;-70
2022/01/04 00:37:37;;;;;;;1.73;0.80;;;;;;;10.93;86.39;98450.00;342164;28;1902;-70
2022/01/04 00:37:52;;;;;;;1.75;0.90;;;;;;;10.88;85.97;98458.00;342421;28;1056;-70
2022/01/04 00:38:04;;;;;;;1.73;0.90;;;;;;;10.84;86.25;98460.84;342315;28;1246;-70
2022/01/04 00:38:16;;;;;;;1.40;0.77;;;;;;;10.90;86.17;98448.38;342196;28;1084;-70
2022/01/04 00:38:28;;;;;;;1.33;0.80;;;;;;;10.91;86.53;98451.81;342482;28;1104;-70
2022/01/04 00:38:40;;;;;;;0.95;0.77;;;;;;;10.89;86.56;98438.91;342060;28;2419;-70
2022/01/04 00:38:52;;;;;;;1.33;0.80;;;;;;;10.93;86.39;98447.38;342369;28;1236;-70
2022/01/04 00:39:04;;;;;;;1.80;0.80;;;;;;;10.92;86.64;98445.69;341399;28;1806;-70
2022/01/04 00:39:16;;;;;;;2.22;0.90;;;;;;;10.94;86.43;98443.84;342000;28;2068;-70
2022/01/04 00:39:28;;;;;;;2.08;0.90;;;;;;;10.92;86.70;98445.69;342210;28;1135;-70
2022/01/04 00:39:41;;;;;;;2.10;0.90;;;;;;;10.93;86.55;98444.78;342447;28;1417;-70
2022/01/04 00:39:54;;;;;;;1.20;0.80;;;;;;;10.89;86.69;98446.69;342221;28;1230;-70
2022/01/04 00:40:06;;;;;;;0.85;0.80;;;;;;;10.94;86.66;98446.44;343648;28;1090;-70
2022/01/04 00:40:19;;;;;;;2.40;0.95;;;;;;;10.93;86.26;98445.63;341695;28;1957;-70
2022/01/04 00:40:31;;;;;;;2.80;1.10;;;;;;;10.85;86.29;98441.75;341821;28;2307;-70
2022/01/04 00:40:43;;;;;;;2.05;1.05;;;;;;;10.86;86.82;98443.41;341430;28;1913;-70
2022/01/04 00:40:55;;;;;;;2.10;0.80;;;;;;;10.88;86.82;98446.78;341547;28;2276;-70
2022/01/04 00:41:07;;;;;;;2.35;0.80;;;;;;;10.88;86.75;98447.59;343419;28;1445;-70
2022/01/04 00:41:19;;;;;;;1.65;0.80;;;;;;;10.84;86.77;98445.25;342727;28;1559;-70
2022/01/04 00:41:31;;;;;;;1.67;0.80;;;;;;;10.83;86.77;98439.22;341000;29;1023;-70
2022/01/04 00:41:43;;;;;;;1.38;0.70;;;;;;;10.84;86.94;98433.09;340921;29;864;-70
2022/01/04 00:41:55;;;;;;;1.25;0.70;;;;;;;10.86;86.73;98438.22;342107;28;1644;-70
2022/01/04 00:42:08;;;;;;;1.10;0.80;;;;;;;10.90;86.67;98439.72;339302;28;1894;-70
2022/01/04 00:42:20;;;;;;;1.05;0.80;;;;;;;10.90;86.66;98439.72;339546;28;1794;-70
2022/01/04 00:42:32;;;;;;;1.30;0.80;;;;;;;10.88;86.52;98437.22;339904;28;1784;-70
2022/01/04 00:42:44;;;;;;;1.40;0.70;;;;;;;10.91;86.68;98436.22;341010;28;1351;-70
2022/01/04 00:42:58;;;;;;;2.22;0.98;;;;;;;10.91;86.55;98438.84;339940;28;1914;-70
2022/01/04 00:43:10;;;;;;;2.17;1.00;;;;;;;10.90;86.75;98432.78;339530;29;1276;-70
2022/01/04 00:43:22;;;;;;;1.60;0.85;;;;;;;10.93;86.45;98439.59;339909;29;1040;-70
2022/01/04 00:43:34;;;;;;;1.50;0.88;;;;;;;10.94;86.42;98441.25;339888;28;1926;-70
2022/01/04 00:43:46;;;;;;;1.48;0.80;;;;;;;10.92;86.68;98440.50;342014;28;1366;-70
2022/01/04 00:43:58;;;;;;;1.35;0.80;;;;;;;10.88;86.43;98437.22;342206;28;1268;-70
2022/01/04 00:44:10;;;;;;;1.77;1.00;;;;;;;10.88;86.23;98441.56;342318;28;1365;-70
2022/01/04 00:44:22;;;;;;;1.55;1.00;;;;;;;10.86;86.41;98433.03;342180;28;1254;-70
2022/01/04 00:44:34;;;;;;;1.77;0.90;;;;;;;10.89;86.47;98438.06;341625;28;1866;-71
2022/01/04 00:44:47;;;;;;;1.50;0.85;;;;;;;10.91;86.14;98428.44;342209;28;1292;-71
2022/01/04 00:44:59;;;;;;;0.93;0.82;;;;;;;10.89;86.31;98438.91;341434;28;1612;-71
2022/01/04 00:45:11;;;;;;;0.90;0.80;;;;;;;10.94;86.13;98430.84;341454;28;2094;-70
2022/01/04 00:45:24;;;;;;;1.00;0.85;;;;;;;10.96;86.47;98434.22;342351;28;2135;-70
2022/01/04 00:45:37;;;;;;;2.58;0.90;;;;;;;10.98;86.06;98437.56;340956;28;1052;-70
2022/01/04 00:45:51;;;;;;;2.92;0.85;;;;;;;10.98;86.62;98429.75;341694;28;2176;-69
2022/01/04 00:46:04;;;;;;;1.90;0.90;;;;;;;10.93;86.44;98430.03;341064;28;1329;-69
2022/01/04 00:46:17;;;;;;;1.73;1.13;;;;;;;10.92;86.33;98430.09;340857;29;1437;-69
2022/01/04 00:46:30;;;;;;;1.33;1.00;;;;;;;10.87;86.32;98439.91;339282;28;1878;-69
2022/01/04 00:46:42;;;;;;;0.90;0.85;;;;;;;10.85;86.80;98431.34;340482;28;1650;-69
2022/01/04 00:46:54;;;;;;;0.77;0.70;;;;;;;10.89;86.67;98428.50;340286;28;1525;-69
2022/01/04 00:47:08;;;;;;;0.70;0.70;;;;;;;10.91;86.63;98425.81;341088;29;1080;-69
2022/01/04 00:47:27;;;;;;;0.90;0.80;;;;;;;10.95;86.42;98427.34;340914;29;1059;-69
2022/01/04 00:49:09;;;;;;;1.05;0.88;;;;;;;10.95;86.59;98428.19;340961;28;1728;-69
2022/01/04 00:49:11;;;;;;;1.55;1.00;;;;;;;10.98;85.93;98416.75;340236;29;1902;-69
2022/01/04 00:49:23;;;;;;;1.48;1.00;;;;;;;11.00;85.91;98425.31;339376;29;1307;-69
2022/01/04 00:49:26;;;;;;;1.67;1.08;;;;;;;10.98;86.02;98424.56;340206;29;2180;-69
2022/01/04 00:49:36;;;;;;;1.48;0.93;;;;;;;10.94;86.30;98425.66;339871;28;2012;-69
2022/01/04 00:49:48;;;;;;;1.27;0.85;;;;;;;10.96;86.15;98432.44;340648;28;1310;-69
2022/01/04 00:50:00;;;;;;;1.90;0.90;;;;;;;10.97;86.18;98420.28;340550;29;1273;-69
2022/01/04 00:50:12;;;;;;;1.83;1.15;;;;;;;10.95;86.04;98424.75;340595;28;1358;-69
2022/01/04 00:50:26;;;;;;;1.40;1.30;;;;;;;10.99;85.74;98423.66;340962;28;1659;-69
2022/01/04 00:50:38;;;;;;;1.42;1.10;;;;;;;10.94;85.93;98420.44;340882;28;1772;-69
2022/01/04 00:50:51;;;;;;;2.03;1.10;;;;;;;10.96;86.39;98429.00;340272;28;1950;-69
2022/01/04 00:51:03;;;;;;;1.80;1.15;;;;;;;11.02;85.87;98418.28;341135;28;1324;-69
2022/01/04 00:51:14;;;;;;;1.38;1.27;;;;;;;11.01;86.21;98416.59;339994;29;1856;-69
2022/01/04 00:51:26;;;;;;;1.73;1.25;;;;;;;10.98;85.82;98421.97;341335;28;1485;-69
2022/01/04 00:51:47;;;;;;;1.65;1.15;;;;;;;11.00;86.01;98420.13;342447;28;1536;-69
2022/01/04 00:52:01;;;;;;;1.10;0.93;;;;;;;10.99;86.35;98415.84;341949;28;1594;-69
2022/01/04 00:52:16;;;;;;;1.05;0.90;;;;;;;10.97;86.13;98412.50;341583;28;1722;-69
2022/01/04 00:52:28;;;;;;;1.10;0.90;;;;;;;10.90;86.46;98413.75;342327;28;1541;-69
2022/01/04 00:52:40;;;;;;;1.10;0.80;;;;;;;10.94;86.16;98416.09;342478;28;1040;-69
2022/01/04 00:52:52;;;;;;;1.00;0.88;;;;;;;10.96;86.38;98414.25;343404;28;1647;-69
2022/01/04 00:53:05;;;;;;;1.35;1.10;;;;;;;11.01;86.27;98416.59;342357;28;1278;-69
2022/01/04 00:53:18;;;;;;;1.48;1.20;;;;;;;11.03;86.52;98419.97;342478;28;1579;-69
2022/01/04 00:53:30;;;;;;;1.30;1.15;;;;;;;10.99;86.11;98423.66;343547;28;1194;-69
2022/01/04 00:53:42;;;;;;;1.83;1.73;;;;;;;10.95;85.88;98416.94;341599;28;2671;-69
2022/01/04 00:53:54;;;;;;;2.47;1.67;;;;;;;10.91;86.32;98420.63;342052;28;2342;-69
2022/01/04 00:54:06;;;;;;;2.95;2.05;;;;;;;10.94;86.54;98410.88;343419;28;1122;-69
2022/01/04 00:54:20;;;;;;;2.30;2.10;;;;;;;10.93;86.49;98414.41;343552;28;1068;-69
2022/01/04 00:54:34;;;;;;;1.88;1.75;;;;;;;10.95;86.44;98417.78;340769;29;1142;-69
2022/01/04 00:54:46;;;;;;;1.55;1.45;;;;;;;10.95;86.10;98411.75;341724;28;1788;-69
2022/01/04 00:54:58;;;;;;;1.63;1.25;;;;;;;10.98;86.32;98409.78;341056;28;1938;-69
2022/01/04 00:55:10;;;;;;;1.42;1.00;;;;;;;11.04;86.24;98416.44;340993;28;2092;-68
2022/01/04 00:55:22;;;;;;;1.63;1.20;;;;;;;11.04;85.85;98416.44;342277;28;1628;-69
2022/01/04 00:55:35;;;;;;;1.65;1.10;;;;;;;11.05;85.85;98412.91;340830;29;1239;-69
2022/01/04 00:55:47;;;;;;;1.60;1.00;;;;;;;11.04;85.79;98406.03;341258;29;1054;-69
2022/01/04 00:55:59;;;;;;;1.30;1.10;;;;;;;11.02;85.57;98405.28;341330;28;1252;-69
2022/01/04 00:56:11;;;;;;;2.30;1.10;;;;;;;11.09;85.74;98409.22;342211;28;1059;-69
2022/01/04 00:56:23;;;;;;;2.13;1.20;;;;;;;11.12;85.43;98411.66;340394;28;3565;-69
2022/01/04 00:56:36;;;;;;;1.45;1.30;;;;;;;11.14;85.64;98406.38;342985;28;1509;-70
2022/01/04 00:56:49;;;;;;;1.25;1.15;;;;;;;11.14;85.48;98404.59;343518;28;1707;-69
2022/01/04 00:57:01;;;;;;;1.40;1.20;;;;;;;11.14;85.13;98407.19;339591;28;3097;-69
2022/01/04 00:57:13;;;;;;;1.20;1.00;;;;;;;11.14;85.16;98406.38;340862;28;1768;-69
2022/01/04 00:57:25;;;;;;;1.25;1.02;;;;;;;11.14;85.23;98417.59;340810;28;1426;-69
2022/01/04 00:57:37;;;;;;;1.17;0.93;;;;;;;11.11;85.38;98409.97;342126;28;1323;-69
2022/01/04 00:57:49;;;;;;;1.33;0.82;;;;;;;11.07;85.83;98400.66;342174;28;1195;-69
2022/01/04 00:58:03;;;;;;;1.13;0.80;;;;;;;11.10;85.19;98405.69;340861;28;2274;-69
2022/01/04 00:58:19;;;;;;;0.82;0.73;;;;;;;10.99;85.03;98398.47;339804;28;2381;-69
2022/01/04 00:58:31;;;;;;;1.90;0.90;;;;;;;11.02;85.28;98405.28;341917;28;1600;-69
2022/01/04 00:58:43;;;;;;;2.60;1.00;;;;;;;11.00;85.37;98399.31;340350;29;1358;-69
2022/01/04 00:58:55;;;;;;;2.00;1.00;;;;;;;11.00;85.44;98407.13;339622;29;1112;-69
2022/01/04 00:59:07;;;;;;;2.95;1.00;;;;;;;11.02;85.31;98404.44;338458;29;1064;-69
2022/01/04 00:59:19;;;;;;;2.63;0.90;;;;;;;11.02;85.28;98402.66;339411;28;1990;-69
2022/01/04 00:59:31;;;;;;;2.42;0.82;;;;;;;11.04;85.33;98394.78;340731;29;1620;-69
2022/01/04 00:59:43;;;;;;;1.30;0.80;;;;;;;11.05;85.58;98396.50;341161;29;1301;-70
2022/01/04 00:59:55;;;;;;;1.20;0.73;;;;;;;11.11;85.30;98398.75;341062;29;1253;-70
2022/01/04 01:00:10;;;;;;;1.50;0.85;;;;;;;11.11;85.34;98401.34;339450;28;1985;-70
2022/01/04 01:00:23;;;;;;;1.40;1.00;;;;;;;11.09;85.14;98398.00;340100;28;1461;-70
2022/01/04 01:00:35;;;;;;;1.40;0.90;;;;;;;11.14;84.96;98402.00;339536;29;1196;-70
2022/01/04 01:00:47;;;;;;;1.45;0.90;;;;;;;11.14;85.03;98401.16;340059;29;1754;-70
2022/01/04 01:01:00;;;;;;;1.70;1.00;;;;;;;11.14;85.28;98404.59;341114;28;2143;-70
2022/01/04 01:01:12;;;;;;;2.13;1.10;;;;;;;11.18;84.90;98398.31;342288;28;1246;-70
2022/01/04 01:01:25;;;;;;;1.45;0.98;;;;;;;11.22;85.14;98403.34;342330;28;1058;-70
2022/01/04 01:01:38;;;;;;;1.40;0.90;;;;;;;11.23;84.88;98399.81;341933;28;1020;-70
2022/01/04 01:01:50;;;;;;;1.55;0.90;;;;;;;11.17;84.72;98390.59;340477;29;1759;-70
2022/01/04 01:02:03;;;;;;;2.00;1.02;;;;;;;11.18;84.75;98397.47;340358;29;1238;-70
2022/01/04 01:02:16;;;;;;;2.75;1.10;;;;;;;11.15;84.66;98392.47;340593;28;1229;-70
2022/01/04 01:02:28;;;;;;;2.50;1.00;;;;;;;11.19;84.63;98393.97;340985;29;1003;-70
2022/01/04 01:02:40;;;;;;;1.88;1.00;;;;;;;11.19;84.91;98394.78;340935;29;1076;-70
2022/01/04 01:02:53;;;;;;;1.77;1.10;;;;;;;11.19;85.04;98405.19;340851;28;1328;-69
2022/01/04 01:03:06;;;;;;;2.08;1.00;;;;;;;11.17;85.06;98401.84;340818;29;1343;-69
2022/01/04 01:03:19;;;;;;;3.05;0.90;;;;;;;11.17;85.15;98391.44;340920;29;1028;-69
2022/01/04 01:03:31;;;;;;;2.95;0.90;;;;;;;11.23;85.05;98389.41;341778;28;1019;-69